Nomadic Bergen — 2BYA3 — position and weather

sailwx.info

Track history (hours):
 
Tides and Currents Weather Stations Pressure Air Temp Water Temp Dewpoint Dewpoint Depression Visibility Wind Speed Wind Dir Waves Ship Positions

Nomadic Bergen

Last reported at 2017-Nov-19 15:53 UTC. Time now 2017-Nov-22 13:13 UTC.
Position N 33°11' W 008°44'.

Length 108 m; draft 6.5 m.

Type: Ship. MMSI: 235070364.

Date/timePositionNaut miles runAvg speedWind from/ knotsBaromVisibWave heightAir tempDewpointWater temp
2017-Nov-19 15:53N 33°11' W 008°44'227 9.3
2017-Nov-18 15:26N 35°58' W 005°36'4 9.2
2017-Nov-18 15:01N 35°59' W 005°32'6 9.1
2017-Nov-18 14:23N 36°00' W 005°25'2 5.9
2017-Nov-18 14:01N 35°58' W 005°23'5 9.0
2017-Nov-18 13:31N 35°55' W 005°19'2 3.1
2017-Nov-18 13:00N 35°54' W 005°18'0 0.0
2017-Nov-18 12:30N 35°54' W 005°18'0 0.0
2017-Nov-18 12:01N 35°54' W 005°18'0 0.0
2017-Nov-18 11:31N 35°54' W 005°18'0 0.0
2017-Nov-18 11:01N 35°54' W 005°18'0 0.0
2017-Nov-18 10:30N 35°54' W 005°18'0 0.0
2017-Nov-18 10:00N 35°54' W 005°18'0 0.0
2017-Nov-18 09:30N 35°54' W 005°18'0 0.0
2017-Nov-18 09:00N 35°54' W 005°18'0 0.0
2017-Nov-18 08:30N 35°54' W 005°18'1 1.2
2017-Nov-18 08:01N 35°54' W 005°18'1 2.5
2017-Nov-18 07:30N 35°55' W 005°18'0 1.0
2017-Nov-18 07:01N 35°56' W 005°18'3 6.4
2017-Nov-18 06:31N 35°57' W 005°14'  
2017-Nov-13 23:50N 37°31' W 001°02'4 0.1
2017-Nov-12 16:26N 37°32' W 000°57'4 8.1
2017-Nov-12 15:54N 37°30' W 000°52'3 8.3
2017-Nov-12 15:30N 37°28' W 000°49'4 8.4
2017-Nov-12 15:00N 37°26' W 000°44'4 7.6
2017-Nov-12 14:30N 37°23' W 000°42'0 0.9
2017-Nov-12 14:00N 37°22' W 000°42'2 4.4
2017-Nov-12 13:30N 37°22' W 000°45'2 4.3
2017-Nov-12 13:00N 37°22' W 000°48'2 4.3
2017-Nov-12 12:29N 37°22' W 000°51'2 4.3
2017-Nov-12 12:00N 37°22' W 000°53'2 4.4
2017-Nov-12 11:29N 37°22' W 000°56'2 4.3
2017-Nov-12 11:00N 37°22' W 000°59'2 4.3
2017-Nov-12 10:27N 37°23' W 001°02'2 4.2
2017-Nov-12 09:54N 37°23' W 001°05'215 9.2
2017-Nov-11 10:35N 36°00' W 005°13'111.2
2017-Nov-11 10:30N 36°00' W 005°14'611.2
2017-Nov-11 10:00N 35°59' W 005°21'611.5
2017-Nov-11 09:28N 35°57' W 005°28'  
Track history (hours):
 
Tides and Currents Weather Stations Pressure Air Temp Water Temp Dewpoint Dewpoint Depression Visibility Wind Speed Wind Dir Waves Ship Positions

Nomadic Bergen

Last reported at 2017-Nov-19 15:53 UTC. Time now 2017-Nov-22 13:13 UTC.
Position N 33°11' W 008°44'.

Length 108 m; draft 6.5 m.

Type: Ship. MMSI: 235070364.

Date/timePositionNaut miles runAvg speedWind from/ knotsBaromVisibWave heightAir tempDewpointWater temp
2017-Nov-19 15:53N 33°11' W 008°44'227 9.3
2017-Nov-18 15:26N 35°58' W 005°36'4 9.2
2017-Nov-18 15:01N 35°59' W 005°32'6 9.1
2017-Nov-18 14:23N 36°00' W 005°25'2 5.9
2017-Nov-18 14:01N 35°58' W 005°23'5 9.0
2017-Nov-18 13:31N 35°55' W 005°19'2 3.1
2017-Nov-18 13:00N 35°54' W 005°18'0 0.0
2017-Nov-18 12:30N 35°54' W 005°18'0 0.0
2017-Nov-18 12:01N 35°54' W 005°18'0 0.0
2017-Nov-18 11:31N 35°54' W 005°18'0 0.0
2017-Nov-18 11:01N 35°54' W 005°18'0 0.0
2017-Nov-18 10:30N 35°54' W 005°18'0 0.0
2017-Nov-18 10:00N 35°54' W 005°18'0 0.0
2017-Nov-18 09:30N 35°54' W 005°18'0 0.0
2017-Nov-18 09:00N 35°54' W 005°18'0 0.0
2017-Nov-18 08:30N 35°54' W 005°18'1 1.2
2017-Nov-18 08:01N 35°54' W 005°18'1 2.5
2017-Nov-18 07:30N 35°55' W 005°18'0 1.0
2017-Nov-18 07:01N 35°56' W 005°18'3 6.4
2017-Nov-18 06:31N 35°57' W 005°14'  
2017-Nov-13 23:50N 37°31' W 001°02'4 0.1
2017-Nov-12 16:26N 37°32' W 000°57'4 8.1
2017-Nov-12 15:54N 37°30' W 000°52'3 8.3
2017-Nov-12 15:30N 37°28' W 000°49'4 8.4
2017-Nov-12 15:00N 37°26' W 000°44'4 7.6
2017-Nov-12 14:30N 37°23' W 000°42'0 0.9
2017-Nov-12 14:00N 37°22' W 000°42'2 4.4
2017-Nov-12 13:30N 37°22' W 000°45'2 4.3
2017-Nov-12 13:00N 37°22' W 000°48'2 4.3
2017-Nov-12 12:29N 37°22' W 000°51'2 4.3
2017-Nov-12 12:00N 37°22' W 000°53'2 4.4
2017-Nov-12 11:29N 37°22' W 000°56'2 4.3
2017-Nov-12 11:00N 37°22' W 000°59'2 4.3
2017-Nov-12 10:27N 37°23' W 001°02'2 4.2
2017-Nov-12 09:54N 37°23' W 001°05'215 9.2
2017-Nov-11 10:35N 36°00' W 005°13'111.2
2017-Nov-11 10:30N 36°00' W 005°14'611.2
2017-Nov-11 10:00N 35°59' W 005°21'611.5
2017-Nov-11 09:28N 35°57' W 005°28'  

Dump ship's entire track history